createdAt,value
2018-09-03T00:01:46.812Z,16.20
2018-09-03T00:04:15.784Z,17.60
2018-09-03T00:06:44.789Z,15.53
2018-09-03T00:09:13.770Z,15.95
2018-09-03T00:11:42.758Z,15.28
2018-09-03T00:14:11.717Z,15.30
2018-09-03T00:16:40.718Z,18.52
2018-09-03T00:19:09.834Z,17.52
2018-09-03T00:21:38.772Z,14.85
2018-09-03T00:24:07.745Z,13.83
2018-09-03T00:26:36.741Z,15.68
2018-09-03T00:29:05.750Z,19.42
2018-09-03T00:31:40.065Z,19.30
2018-09-03T00:34:14.376Z,18.55
2018-09-03T00:36:48.662Z,17.15
2018-09-03T00:39:23.064Z,16.52
2018-09-03T00:41:57.500Z,18.00
2018-09-03T00:44:31.848Z,15.95
2018-09-03T00:47:02.766Z,16.65
2018-09-03T00:49:31.734Z,17.90
2018-09-03T00:52:00.801Z,19.10
2018-09-03T00:54:29.778Z,18.52
2018-09-03T00:56:58.733Z,18.62
2018-09-03T00:59:27.675Z,18.35
2018-09-03T01:01:56.623Z,19.00
2018-09-03T01:04:25.663Z,16.32
2018-09-03T01:06:54.738Z,16.27
2018-09-03T01:09:24.028Z,17.42
2018-09-03T01:11:52.930Z,19.25
2018-09-03T01:14:21.851Z,20.08
2018-09-03T01:16:50.825Z,18.55
2018-09-03T01:19:19.781Z,17.35
2018-09-03T01:21:48.866Z,17.67
2018-09-03T01:24:17.827Z,18.10
2018-09-03T01:26:46.830Z,17.60
2018-09-03T01:29:15.769Z,16.97
2018-09-03T01:31:44.917Z,17.57
2018-09-03T01:34:13.873Z,15.50
2018-09-03T01:36:42.883Z,14.90
2018-09-03T01:39:11.828Z,20.40
2018-09-03T01:41:40.759Z,20.17
2018-09-03T01:44:09.719Z,18.98
2018-09-03T01:46:38.719Z,19.30
2018-09-03T01:49:07.721Z,18.98
2018-09-03T01:51:36.700Z,18.27
2018-09-03T01:54:06.369Z,18.55
2018-09-03T01:56:35.343Z,18.02
2018-09-03T01:59:04.867Z,18.45
2018-09-03T02:01:33.927Z,21.50
2018-09-03T02:04:02.942Z,20.15
2018-09-03T02:06:31.914Z,21.40
2018-09-03T02:09:00.849Z,20.00
2018-09-03T02:11:30.122Z,22.02
2018-09-03T02:13:59.094Z,21.45
2018-09-03T02:16:28.095Z,20.88
2018-09-03T02:18:57.093Z,19.90
2018-09-03T02:21:26.082Z,20.95
2018-09-03T02:23:55.423Z,21.05
2018-09-03T02:26:24.448Z,21.33
2018-09-03T02:28:53.418Z,21.07
2018-09-03T02:31:22.478Z,17.80
2018-09-03T02:33:51.420Z,21.50
2018-09-03T02:36:20.598Z,23.18
2018-09-03T02:38:49.646Z,27.67
2018-09-03T02:41:18.733Z,20.80
2018-09-03T02:43:47.734Z,21.15
2018-09-03T02:46:16.725Z,22.75
2018-09-03T02:48:45.684Z,24.18
2018-09-03T02:51:14.752Z,25.05
2018-09-03T02:53:43.688Z,22.55
2018-09-03T02:56:12.676Z,24.40
2018-09-03T02:58:41.643Z,24.02
2018-09-03T03:01:10.582Z,22.77
2018-09-03T03:03:39.538Z,21.75
2018-09-03T03:06:08.814Z,20.77
2018-09-03T03:08:37.894Z,21.93
2018-09-03T03:11:07.193Z,22.50
2018-09-03T03:13:36.244Z,22.77
2018-09-03T03:16:05.173Z,21.02
2018-09-03T03:18:34.175Z,24.07
2018-09-03T03:21:03.359Z,26.00
2018-09-03T03:23:32.648Z,26.75
2018-09-03T03:26:01.718Z,28.57
2018-09-03T03:28:30.683Z,25.20
2018-09-03T03:30:59.638Z,26.17
2018-09-03T03:33:28.565Z,27.22
2018-09-03T03:35:57.525Z,27.10
2018-09-03T03:38:26.920Z,28.15
2018-09-03T03:40:55.894Z,28.32
2018-09-03T03:43:25.001Z,28.75
2018-09-03T03:45:53.966Z,29.42
2018-09-03T03:48:22.973Z,33.58
2018-09-03T03:50:52.010Z,29.50
2018-09-03T03:53:21.001Z,31.95
2018-09-03T03:55:49.988Z,30.65
2018-09-03T03:58:18.988Z,30.62
2018-09-03T04:00:47.925Z,32.65
2018-09-03T04:03:17.023Z,31.10
2018-09-03T04:05:45.985Z,33.75
2018-09-03T04:08:14.955Z,33.20
2018-09-03T04:10:43.881Z,32.53
2018-09-03T04:13:12.997Z,32.42
2018-09-03T04:15:41.967Z,35.08
2018-09-03T04:18:11.092Z,32.17
2018-09-03T04:20:40.181Z,31.27
2018-09-03T04:23:09.140Z,31.35
2018-09-03T04:25:38.283Z,29.07
2018-09-03T04:28:07.336Z,27.95
2018-09-03T04:30:36.610Z,33.38
2018-09-03T04:33:05.552Z,36.13
2018-09-03T04:35:34.542Z,30.75
2018-09-03T04:38:03.573Z,35.50
2018-09-03T04:40:32.740Z,37.13
2018-09-03T04:43:01.701Z,36.40
2018-09-03T04:45:30.674Z,36.30
2018-09-03T04:47:59.797Z,36.15
2018-09-03T04:50:28.870Z,35.28
2018-09-03T04:52:57.876Z,30.90
2018-09-03T04:55:26.807Z,32.17
2018-09-03T04:57:55.911Z,30.65
2018-09-03T05:00:24.891Z,32.45
2018-09-03T05:02:53.980Z,35.08
2018-09-03T05:05:23.768Z,33.85
2018-09-03T05:07:52.835Z,34.50
2018-09-03T05:10:21.813Z,35.63
2018-09-03T05:12:51.237Z,35.83
2018-09-03T05:15:20.307Z,32.88
2018-09-03T05:17:49.349Z,33.67
2018-09-03T05:20:18.561Z,35.23
2018-09-03T05:22:47.608Z,33.60
2018-09-03T05:25:16.863Z,34.40
2018-09-03T05:27:45.823Z,34.10
2018-09-03T05:30:15.065Z,36.03
2018-09-03T05:32:44.083Z,33.92
2018-09-03T05:35:13.143Z,36.10
2018-09-03T05:37:42.139Z,34.75
2018-09-03T05:40:11.302Z,40.03
2018-09-03T05:42:40.355Z,39.08
2018-09-03T05:45:09.329Z,36.58
2018-09-03T05:47:38.313Z,43.40
2018-09-03T05:50:07.349Z,40.25
2018-09-03T05:52:36.559Z,45.12
2018-09-03T05:55:05.935Z,42.25
2018-09-03T05:57:35.004Z,45.75
2018-09-03T06:00:04.508Z,47.48
2018-09-03T06:02:33.471Z,46.20
2018-09-03T06:05:02.609Z,47.48
2018-09-03T06:07:31.829Z,43.87
2018-09-03T06:10:00.790Z,44.25
2018-09-03T06:12:29.836Z,43.25
2018-09-03T06:14:58.921Z,42.93
2018-09-03T06:17:27.988Z,42.88
2018-09-03T06:19:57.108Z,45.63
2018-09-03T06:22:26.157Z,46.15
2018-09-03T06:24:55.262Z,44.60
2018-09-03T06:27:24.201Z,46.90
2018-09-03T06:29:53.184Z,54.42
2018-09-03T06:32:22.117Z,53.02
2018-09-03T06:34:51.092Z,53.98
2018-09-03T06:37:20.069Z,58.35
2018-09-03T06:39:49.350Z,56.68
2018-09-03T06:42:18.412Z,61.30
2018-09-03T06:44:47.525Z,55.43
2018-09-03T06:47:16.625Z,61.48
2018-09-03T06:49:45.719Z,61.20
2018-09-03T06:52:15.086Z,61.02
2018-09-03T06:54:44.046Z,63.30
2018-09-03T06:57:13.033Z,64.07
2018-09-03T06:59:42.227Z,63.28
2018-09-03T07:02:11.760Z,58.95
2018-09-03T07:04:40.840Z,59.83
2018-09-03T07:07:09.940Z,57.95
2018-09-03T07:09:39.072Z,60.12
2018-09-03T07:12:08.030Z,59.42
2018-09-03T07:14:37.115Z,57.10
2018-09-03T07:17:06.114Z,57.40
2018-09-03T07:19:35.067Z,56.05
2018-09-03T07:22:04.174Z,63.75
2018-09-03T07:24:33.692Z,57.08
2018-09-03T07:27:02.851Z,54.18
2018-09-03T07:29:31.870Z,57.10
2018-09-03T07:32:01.044Z,59.67
2018-09-03T07:34:30.130Z,61.55
2018-09-03T07:36:59.096Z,60.60
2018-09-03T07:39:28.416Z,60.25
2018-09-03T07:41:57.371Z,54.20
2018-09-03T07:44:26.363Z,57.90
2018-09-03T07:46:55.306Z,53.13
2018-09-03T07:49:24.301Z,52.85
2018-09-03T07:51:53.288Z,54.20
2018-09-03T07:54:22.333Z,53.98
2018-09-03T07:56:51.350Z,56.68
2018-09-03T07:59:20.637Z,52.13
2018-09-03T08:01:49.646Z,55.48
2018-09-03T08:04:18.593Z,53.30
2018-09-03T08:06:47.595Z,51.02
2018-09-03T08:09:16.560Z,57.80
2018-09-03T08:11:45.519Z,53.92
2018-09-03T08:14:14.447Z,53.23
2018-09-03T08:16:43.434Z,52.13
2018-09-03T08:19:12.979Z,48.98
2018-09-03T08:21:41.940Z,48.85
2018-09-03T08:24:10.883Z,50.60
2018-09-03T08:26:39.978Z,47.93
2018-09-03T08:29:09.114Z,44.85
2018-09-03T08:31:38.078Z,41.88
2018-09-03T08:34:07.200Z,42.70
2018-09-03T08:36:36.286Z,42.83
2018-09-03T08:39:06.498Z,51.73
2018-09-03T08:41:35.847Z,41.37
2018-09-03T08:44:05.066Z,43.28
2018-09-03T08:46:34.021Z,41.88
2018-09-03T08:49:03.010Z,42.43
2018-09-03T08:51:32.129Z,41.05
2018-09-03T08:54:01.113Z,41.73
2018-09-03T08:56:30.130Z,40.50
2018-09-03T08:58:59.071Z,44.15
2018-09-03T09:01:28.119Z,40.30
2018-09-03T09:03:57.159Z,42.13
2018-09-03T09:06:26.139Z,40.45
2018-09-03T09:08:55.297Z,40.65
2018-09-03T09:11:24.348Z,40.15
2018-09-03T09:13:53.363Z,42.17
2018-09-03T09:16:22.491Z,40.12
2018-09-03T09:18:51.485Z,40.28
2018-09-03T09:21:20.471Z,44.58
2018-09-03T09:23:49.440Z,42.08
2018-09-03T09:26:18.449Z,41.65
2018-09-03T09:28:47.151Z,42.93
2018-09-03T09:31:16.465Z,40.20
2018-09-03T09:33:45.531Z,38.78
2018-09-03T09:36:14.735Z,40.43
2018-09-03T09:38:43.785Z,42.95
2018-09-03T09:41:12.909Z,41.65
2018-09-03T09:43:41.900Z,40.48
2018-09-03T09:46:10.998Z,40.00
2018-09-03T09:48:39.980Z,44.48
2018-09-03T09:51:08.886Z,39.47
2018-09-03T09:53:37.878Z,40.40
2018-09-03T09:56:07.081Z,39.30
2018-09-03T09:58:36.218Z,41.63
2018-09-03T10:01:10.529Z,38.70
2018-09-03T10:03:39.642Z,42.33
2018-09-03T10:06:08.431Z,42.03
2018-09-03T10:08:37.111Z,40.47
2018-09-03T10:11:06.153Z,38.03
2018-09-03T10:13:34.833Z,40.47
2018-09-03T10:16:04.094Z,38.73
2018-09-03T10:18:32.747Z,39.97
2018-09-03T10:21:01.494Z,42.70
2018-09-03T10:23:30.527Z,42.30
2018-09-03T10:25:59.452Z,37.47
2018-09-03T10:28:28.536Z,40.28
2018-09-03T10:30:57.931Z,42.43
2018-09-03T10:33:26.976Z,44.73
2018-09-03T10:35:55.852Z,40.60
2018-09-03T10:38:24.592Z,41.10
2018-09-03T10:40:53.378Z,41.80
2018-09-03T10:43:22.406Z,40.70
2018-09-03T10:45:51.498Z,43.05
2018-09-03T10:48:20.222Z,43.20
2018-09-03T10:50:48.972Z,43.53
2018-09-03T10:53:17.611Z,41.57
2018-09-03T10:55:46.285Z,42.20
2018-09-03T10:58:15.316Z,40.12
2018-09-03T11:00:44.438Z,45.35
2018-09-03T11:03:13.525Z,45.17
2018-09-03T11:05:42.589Z,42.20
2018-09-03T11:08:11.359Z,40.57
2018-09-03T11:10:40.098Z,43.13
2018-09-03T11:13:09.125Z,44.53
2018-09-03T11:15:38.288Z,44.77
2018-09-03T11:18:07.030Z,42.60
2018-09-03T11:20:35.969Z,40.85
2018-09-03T11:23:04.995Z,42.37
2018-09-03T11:25:34.467Z,38.03
2018-09-03T11:28:03.426Z,37.93
2018-09-03T11:30:32.207Z,72.97
2018-09-03T11:33:02.059Z,34.50
2018-09-03T11:35:31.101Z,35.43
2018-09-03T11:37:59.841Z,37.60
2018-09-03T11:40:28.537Z,33.67
2018-09-03T11:42:57.273Z,30.50
2018-09-03T11:45:25.959Z,36.37
2018-09-03T11:47:54.682Z,32.67
2018-09-03T11:50:23.342Z,34.63
2018-09-03T11:52:52.146Z,35.07
2018-09-03T11:55:20.898Z,37.30
2018-09-03T11:57:49.560Z,34.53
2018-09-03T12:00:21.591Z,34.50
2018-09-03T12:02:50.441Z,31.77
2018-09-03T12:05:19.160Z,30.20
2018-09-03T12:07:47.906Z,29.00
2018-09-03T12:10:16.583Z,28.83
2018-09-03T12:12:45.270Z,33.07
2018-09-03T12:15:18.313Z,31.13
2018-09-03T12:17:47.106Z,30.17
2018-09-03T12:20:15.814Z,33.27
2018-09-03T12:22:44.632Z,31.87
2018-09-03T12:25:13.400Z,32.23
2018-09-03T12:27:42.240Z,35.90
2018-09-03T12:30:11.156Z,30.70
2018-09-03T12:32:39.990Z,29.40
2018-09-03T12:35:08.909Z,31.70
2018-09-03T12:37:37.718Z,30.47
2018-09-03T12:40:06.886Z,29.40
2018-09-03T12:42:35.727Z,36.63
2018-09-03T12:45:04.745Z,29.90
2018-09-03T12:47:33.488Z,33.17
2018-09-03T12:50:02.424Z,29.13
2018-09-03T12:52:31.244Z,31.47
2018-09-03T12:55:00.219Z,30.80
2018-09-03T12:57:28.911Z,29.47
2018-09-03T13:00:05.149Z,33.33
2018-09-03T13:02:26.497Z,31.53
2018-09-03T13:04:55.198Z,28.23
2018-09-03T13:07:23.920Z,28.53
2018-09-03T13:09:52.685Z,31.60
2018-09-03T13:12:21.347Z,33.53
2018-09-03T13:14:50.103Z,32.50
2018-09-03T13:17:18.798Z,35.50
2018-09-03T13:19:47.576Z,32.07
2018-09-03T13:22:16.321Z,30.50
2018-09-03T13:24:45.138Z,32.40
2018-09-03T13:27:14.092Z,33.73
2018-09-03T13:29:42.951Z,36.87
2018-09-03T13:32:11.683Z,31.50
2018-09-03T13:34:40.370Z,30.03
2018-09-03T13:37:09.054Z,30.53
2018-09-03T13:39:37.940Z,28.03
2018-09-03T13:42:06.812Z,31.57
2018-09-03T13:44:35.760Z,31.10
2018-09-03T13:47:04.724Z,32.40
2018-09-03T13:49:33.437Z,29.93
2018-09-03T13:52:02.156Z,28.97
2018-09-03T13:54:31.141Z,26.40
2018-09-03T13:56:59.885Z,25.63
2018-09-03T13:59:28.929Z,26.93
2018-09-03T14:01:57.668Z,27.10
2018-09-03T14:04:26.378Z,30.80
2018-09-03T14:06:55.323Z,31.43
2018-09-03T14:09:24.549Z,31.93
2018-09-03T14:11:53.326Z,31.53
2018-09-03T14:14:22.071Z,27.77
2018-09-03T14:16:50.764Z,27.83
2018-09-03T14:19:19.877Z,30.10
2018-09-03T14:21:48.664Z,26.73
2018-09-03T14:24:18.057Z,28.83
2018-09-03T14:26:48.393Z,26.97
2018-09-03T14:29:17.256Z,28.80
2018-09-03T14:31:45.972Z,27.87
2018-09-03T14:34:14.769Z,26.57
2018-09-03T14:36:43.596Z,27.60
2018-09-03T14:39:13.031Z,28.77
2018-09-03T14:41:41.689Z,30.47
2018-09-03T14:44:10.628Z,28.97
2018-09-03T14:46:39.320Z,30.33
2018-09-03T14:49:08.372Z,39.60
2018-09-03T14:51:37.101Z,32.27
2018-09-03T14:54:06.044Z,30.33
2018-09-03T14:56:34.718Z,30.57
2018-09-03T14:59:03.438Z,30.97
2018-09-03T15:01:32.352Z,28.47
2018-09-03T15:04:01.128Z,29.90
2018-09-03T15:06:30.052Z,32.43
2018-09-03T15:08:58.739Z,36.50
2018-09-03T15:11:27.708Z,31.23
2018-09-03T15:14:00.464Z,34.93
2018-09-03T15:16:32.402Z,33.67
2018-09-03T15:19:03.124Z,32.00
2018-09-03T15:21:32.726Z,31.87
2018-09-03T15:24:02.048Z,30.03
2018-09-03T15:26:31.056Z,28.43
2018-09-03T15:28:59.928Z,27.50
2018-09-03T15:31:29.025Z,28.70
2018-09-03T15:33:57.691Z,28.77
2018-09-03T15:36:26.844Z,28.30
2018-09-03T15:38:55.616Z,27.00
2018-09-03T15:41:24.299Z,31.37
2018-09-03T15:43:53.081Z,31.53
2018-09-03T15:46:21.905Z,26.10
2018-09-03T15:48:50.662Z,25.13
2018-09-03T15:51:19.623Z,80.13
2018-09-03T15:53:48.453Z,31.80
2018-09-03T15:56:17.157Z,24.83
2018-09-03T15:58:45.877Z,27.13
2018-09-03T16:01:14.733Z,27.43
2018-09-03T16:03:43.466Z,28.60
2018-09-03T16:06:12.134Z,29.27
2018-09-03T16:08:40.840Z,22.73
2018-09-03T16:11:09.580Z,23.07
2018-09-03T16:13:38.390Z,24.37
2018-09-03T16:16:07.157Z,23.70
2018-09-03T16:18:35.868Z,24.23
2018-09-03T16:21:04.940Z,23.07
2018-09-03T16:23:33.760Z,24.47
2018-09-03T16:26:02.852Z,24.37
2018-09-03T16:28:31.828Z,25.03
2018-09-03T16:31:00.625Z,23.93
2018-09-03T16:33:29.368Z,21.80
2018-09-03T16:35:58.181Z,22.73
2018-09-03T16:38:26.933Z,26.50
2018-09-03T16:40:55.697Z,24.00
2018-09-03T16:43:24.373Z,25.53
2018-09-03T16:45:53.061Z,22.00
2018-09-03T16:48:21.731Z,24.60
2018-09-03T16:50:50.434Z,23.00
2018-09-03T16:53:19.078Z,25.87
2018-09-03T16:55:47.935Z,27.23
2018-09-03T16:58:16.691Z,23.00
2018-09-03T17:00:45.591Z,26.23
2018-09-03T17:03:14.435Z,27.93
2018-09-03T17:05:43.179Z,24.13
2018-09-03T17:08:12.136Z,25.87
2018-09-03T17:10:41.077Z,29.17
2018-09-03T17:13:09.733Z,26.83
2018-09-03T17:15:38.760Z,24.92
2018-09-03T17:18:07.716Z,25.02
2018-09-03T17:20:36.782Z,24.67
2018-09-03T17:23:05.516Z,20.30
2018-09-03T17:25:34.667Z,30.80
2018-09-03T17:28:03.734Z,28.87
2018-09-03T17:30:32.704Z,27.30
2018-09-03T17:33:01.435Z,25.60
2018-09-03T17:35:30.611Z,24.02
2018-09-03T17:37:59.622Z,26.83
2018-09-03T17:40:28.654Z,28.00
2018-09-03T17:42:58.123Z,31.02
2018-09-03T17:45:27.355Z,31.87
2018-09-03T17:47:56.040Z,36.20
2018-09-03T17:50:24.737Z,32.63
2018-09-03T17:52:55.700Z,40.17
2018-09-03T17:55:24.663Z,35.40
2018-09-03T17:57:53.653Z,36.28
2018-09-03T18:00:22.661Z,31.80
2018-09-03T18:02:51.679Z,28.70
2018-09-03T18:05:20.903Z,27.58
2018-09-03T18:07:49.905Z,26.07
2018-09-03T18:10:19.032Z,30.27
2018-09-03T18:12:48.025Z,25.27
2018-09-03T18:15:17.019Z,34.65
2018-09-03T18:17:46.097Z,29.98
2018-09-03T18:20:15.041Z,28.12
2018-09-03T18:22:44.006Z,27.80
2018-09-03T18:25:12.981Z,25.77
2018-09-03T18:27:41.954Z,27.27
2018-09-03T18:30:11.352Z,26.40
2018-09-03T18:32:40.565Z,26.40
2018-09-03T18:35:09.966Z,29.23
2018-09-03T18:37:38.916Z,28.80
2018-09-03T18:40:08.304Z,31.93
2018-09-03T18:42:37.387Z,27.60
2018-09-03T18:45:07.926Z,28.47
2018-09-03T18:47:36.896Z,32.13
2018-09-03T18:50:07.095Z,32.33
2018-09-03T18:52:36.076Z,33.05
2018-09-03T18:55:05.106Z,28.27
2018-09-03T18:57:34.405Z,29.25
2018-09-03T19:00:03.894Z,31.60
2018-09-03T19:02:33.646Z,29.82
2018-09-03T19:05:02.844Z,30.68
2018-09-03T19:07:31.898Z,29.10
2018-09-03T19:10:00.972Z,29.82
2018-09-03T19:12:29.943Z,29.82
2018-09-03T19:14:58.984Z,31.95
2018-09-03T19:17:27.940Z,32.60
2018-09-03T19:19:57.328Z,32.15
2018-09-03T19:22:26.326Z,30.90
2018-09-03T19:24:55.286Z,32.90
2018-09-03T19:27:24.285Z,33.63
2018-09-03T19:29:53.352Z,36.48
2018-09-03T19:32:22.442Z,43.15
2018-09-03T19:34:51.548Z,39.78
2018-09-03T19:37:20.528Z,40.50
2018-09-03T19:39:49.602Z,41.37
2018-09-03T19:42:18.652Z,43.17
2018-09-03T19:44:47.742Z,42.33
2018-09-03T19:47:16.870Z,42.48
2018-09-03T19:49:45.890Z,37.67
2018-09-03T19:52:15.224Z,40.98
2018-09-03T19:54:44.282Z,42.13
2018-09-03T19:57:13.319Z,43.05
2018-09-03T19:59:42.644Z,42.70
2018-09-03T20:02:11.613Z,40.95
2018-09-03T20:04:40.823Z,41.70
2018-09-03T20:07:09.950Z,37.83
2018-09-03T20:09:39.307Z,44.40
2018-09-03T20:12:08.348Z,38.75
2018-09-03T20:14:37.517Z,42.58
2018-09-03T20:17:06.682Z,41.25
2018-09-03T20:19:35.831Z,41.75
2018-09-03T20:22:06.027Z,41.80
2018-09-03T20:24:34.998Z,43.58
2018-09-03T20:27:03.997Z,44.60
2018-09-03T20:29:33.064Z,43.40
2018-09-03T20:32:02.450Z,47.88
2018-09-03T20:34:31.406Z,44.30
2018-09-03T20:37:00.353Z,43.92
2018-09-03T20:39:29.680Z,44.60
2018-09-03T20:41:58.649Z,45.45
2018-09-03T20:44:28.045Z,48.78
2018-09-03T20:46:57.126Z,51.02
2018-09-03T20:49:26.096Z,45.28
2018-09-03T20:51:55.177Z,45.88
2018-09-03T20:54:24.144Z,49.98
2018-09-03T20:56:53.075Z,48.83
2018-09-03T20:59:22.051Z,47.53
2018-09-03T21:01:51.215Z,50.08
2018-09-03T21:04:20.189Z,51.60
2018-09-03T21:06:49.267Z,46.20
2018-09-03T21:09:18.227Z,47.50
2018-09-03T21:11:47.248Z,45.25
2018-09-03T21:14:16.207Z,45.52
2018-09-03T21:16:45.177Z,46.05
2018-09-03T21:19:14.159Z,45.55
2018-09-03T21:21:43.411Z,44.80
2018-09-03T21:24:12.689Z,47.98
2018-09-03T21:26:41.793Z,45.10
2018-09-03T21:29:10.964Z,46.35
2018-09-03T21:31:39.934Z,45.52
2018-09-03T21:34:09.130Z,45.10
2018-09-03T21:36:38.129Z,42.00
2018-09-03T21:39:07.352Z,44.98
2018-09-03T21:41:36.516Z,46.25
2018-09-03T21:44:06.200Z,43.65
2018-09-03T21:46:35.150Z,46.85
2018-09-03T21:49:04.984Z,40.63
2018-09-03T21:51:33.988Z,40.38
2018-09-03T21:54:03.079Z,41.28
2018-09-03T21:56:32.015Z,36.93
2018-09-03T21:59:00.963Z,35.52
2018-09-03T22:01:29.972Z,39.80
2018-09-03T22:03:59.048Z,41.85
2018-09-03T22:06:29.103Z,44.83
2018-09-03T22:08:58.137Z,40.30
2018-09-03T22:11:27.109Z,40.73
2018-09-03T22:13:56.084Z,39.48
2018-09-03T22:16:25.071Z,41.90
2018-09-03T22:18:54.234Z,40.90
2018-09-03T22:21:23.590Z,39.40
2018-09-03T22:23:52.673Z,38.15
2018-09-03T22:26:21.701Z,35.40
2018-09-03T22:28:50.752Z,33.88
2018-09-03T22:31:19.731Z,38.35
2018-09-03T22:33:48.773Z,39.15
2018-09-03T22:36:17.767Z,41.58
2018-09-03T22:38:46.727Z,33.13
2018-09-03T22:41:15.684Z,38.60
2018-09-03T22:43:44.855Z,37.90
2018-09-03T22:46:13.818Z,38.02
2018-09-03T22:48:42.793Z,40.10
2018-09-03T22:51:11.753Z,37.10
2018-09-03T22:53:40.762Z,40.60
2018-09-03T22:56:09.714Z,38.92
2018-09-03T22:58:38.648Z,36.83
2018-09-03T23:01:07.606Z,38.63
2018-09-03T23:03:36.584Z,36.63
2018-09-03T23:06:05.776Z,37.05
2018-09-03T23:08:34.728Z,39.90
2018-09-03T23:11:03.781Z,36.28
2018-09-03T23:13:32.980Z,37.38
2018-09-03T23:16:02.090Z,39.00
2018-09-03T23:18:31.236Z,37.25
2018-09-03T23:21:00.202Z,38.23
2018-09-03T23:23:29.178Z,42.13
2018-09-03T23:25:58.208Z,38.95
2018-09-03T23:28:27.366Z,38.10
2018-09-03T23:30:56.330Z,38.80
2018-09-03T23:33:25.298Z,37.08
2018-09-03T23:35:54.293Z,38.92
2018-09-03T23:38:23.662Z,38.78
2018-09-03T23:40:52.772Z,39.40
2018-09-03T23:43:21.884Z,43.65
2018-09-03T23:45:51.015Z,39.58
2018-09-03T23:48:20.163Z,36.25
2018-09-03T23:50:49.200Z,41.25
2018-09-03T23:53:18.194Z,39.60
2018-09-03T23:55:47.230Z,42.67
2018-09-03T23:58:16.271Z,43.30
